createdAt,value
2023-12-27T00:00:06.387Z,9.53
2023-12-27T00:02:33.690Z,8.87
2023-12-27T00:05:00.683Z,11.37
2023-12-27T00:07:27.616Z,11.10
2023-12-27T00:09:54.557Z,14.73
2023-12-27T00:12:21.477Z,6.87
2023-12-27T00:14:48.474Z,9.20
2023-12-27T00:17:15.408Z,10.87
2023-12-27T00:19:42.520Z,10.50
2023-12-27T00:22:09.607Z,6.80
2023-12-27T00:24:36.762Z,11.83
2023-12-27T00:27:04.098Z,9.80
2023-12-27T00:29:31.745Z,10.93
2023-12-27T00:31:58.714Z,8.90
2023-12-27T00:34:25.804Z,9.67
2023-12-27T00:36:52.706Z,8.90
2023-12-27T00:39:25.054Z,7.03
2023-12-27T00:42:09.311Z,11.00
2023-12-27T00:44:36.436Z,10.77
2023-12-27T00:47:03.390Z,8.03
2023-12-27T00:49:30.446Z,7.63
2023-12-27T00:51:57.422Z,7.57
2023-12-27T00:54:24.413Z,11.33
2023-12-27T00:56:51.394Z,6.73
2023-12-27T00:59:18.300Z,12.23
2023-12-27T01:01:45.405Z,10.67
2023-12-27T01:04:12.737Z,9.03
2023-12-27T01:06:39.945Z,9.40
2023-12-27T01:09:08.510Z,7.57
2023-12-27T01:11:36.685Z,7.10
2023-12-27T01:14:04.064Z,10.07
2023-12-27T01:16:31.121Z,8.67
2023-12-27T01:18:58.113Z,9.87
2023-12-27T01:21:25.109Z,8.33
2023-12-27T01:23:53.046Z,10.27
2023-12-27T01:26:20.074Z,10.60
2023-12-27T01:28:48.548Z,9.63
2023-12-27T01:31:15.636Z,9.27
2023-12-27T01:33:42.789Z,7.13
2023-12-27T01:36:10.382Z,6.00
2023-12-27T01:38:37.381Z,11.67
2023-12-27T01:41:04.718Z,8.93
2023-12-27T01:43:31.638Z,11.70
2023-12-27T01:45:58.702Z,9.10
2023-12-27T01:48:26.290Z,7.73
2023-12-27T01:50:55.771Z,9.77
2023-12-27T01:53:23.953Z,10.00
2023-12-27T01:55:53.260Z,8.27
2023-12-27T01:58:20.724Z,7.97
2023-12-27T02:00:50.636Z,8.50
2023-12-27T02:03:18.790Z,11.23
2023-12-27T02:05:46.936Z,12.47
2023-12-27T02:08:15.512Z,10.13
2023-12-27T02:10:43.040Z,13.27
2023-12-27T02:13:10.241Z,10.17
2023-12-27T02:15:38.116Z,8.47
2023-12-27T02:18:08.097Z,11.20
2023-12-27T02:20:36.266Z,10.30
2023-12-27T02:23:08.134Z,10.67
2023-12-27T02:25:36.119Z,7.73
2023-12-27T02:28:03.939Z,10.63
2023-12-27T02:30:32.810Z,8.53
2023-12-27T02:33:00.935Z,13.87
2023-12-27T02:35:28.030Z,10.53
2023-12-27T02:37:55.411Z,14.70
2023-12-27T02:40:22.414Z,13.73
2023-12-27T02:42:49.418Z,8.07
2023-12-27T02:45:16.505Z,14.67
2023-12-27T02:47:43.474Z,13.13
2023-12-27T02:50:11.283Z,9.43
2023-12-27T02:52:38.233Z,14.97
2023-12-27T02:55:05.647Z,11.63
2023-12-27T02:57:33.001Z,14.77
2023-12-27T03:00:00.071Z,10.10
2023-12-27T03:02:27.105Z,11.27
2023-12-27T03:04:54.165Z,13.67
2023-12-27T03:07:21.215Z,15.30
2023-12-27T03:09:48.354Z,11.77
2023-12-27T03:12:15.492Z,11.70
2023-12-27T03:14:43.351Z,12.20
2023-12-27T03:17:10.322Z,13.77
2023-12-27T03:19:37.392Z,9.10
2023-12-27T03:22:04.559Z,13.17
2023-12-27T03:24:31.579Z,15.50
2023-12-27T03:26:58.697Z,9.77
2023-12-27T03:29:25.646Z,10.33
2023-12-27T03:31:52.585Z,13.87
2023-12-27T03:34:19.664Z,12.23
2023-12-27T03:36:46.619Z,11.90
2023-12-27T03:39:13.667Z,14.60
2023-12-27T03:41:40.656Z,13.63
2023-12-27T03:44:07.668Z,9.63
2023-12-27T03:46:34.866Z,10.17
2023-12-27T03:49:02.086Z,14.57
2023-12-27T03:51:29.178Z,9.90
2023-12-27T03:53:56.177Z,9.90
2023-12-27T03:56:23.128Z,11.07
2023-12-27T03:58:50.060Z,11.63
2023-12-27T04:01:22.150Z,11.17
2023-12-27T04:03:49.816Z,10.03
2023-12-27T04:06:20.362Z,13.83
2023-12-27T04:08:48.417Z,14.27
2023-12-27T04:11:16.304Z,10.63
2023-12-27T04:13:43.379Z,10.60
2023-12-27T04:16:10.341Z,9.00
2023-12-27T04:18:37.543Z,11.37
2023-12-27T04:21:04.891Z,6.83
2023-12-27T04:23:32.009Z,12.07
2023-12-27T04:25:59.835Z,14.07
2023-12-27T04:28:26.851Z,10.50
2023-12-27T04:30:53.850Z,12.17
2023-12-27T04:33:20.985Z,13.50
2023-12-27T04:35:48.868Z,12.80
2023-12-27T04:38:15.830Z,13.83
2023-12-27T04:40:48.610Z,10.63
2023-12-27T04:43:16.681Z,16.50
2023-12-27T04:45:44.027Z,13.40
2023-12-27T04:48:11.294Z,10.23
2023-12-27T04:50:38.391Z,11.87
2023-12-27T04:53:05.358Z,13.80
2023-12-27T04:55:32.427Z,15.13
2023-12-27T04:57:59.639Z,9.37
2023-12-27T05:00:26.917Z,15.73
2023-12-27T05:02:53.924Z,11.10
2023-12-27T05:05:20.946Z,12.13
2023-12-27T05:07:48.175Z,13.10
2023-12-27T05:10:15.258Z,12.70
2023-12-27T05:12:42.298Z,20.93
2023-12-27T05:15:09.696Z,12.77
2023-12-27T05:17:36.700Z,10.80
2023-12-27T05:20:04.615Z,10.43
2023-12-27T05:22:35.236Z,15.53
2023-12-27T05:25:03.350Z,10.63
2023-12-27T05:27:30.341Z,9.50
2023-12-27T05:29:57.370Z,12.13
2023-12-27T05:32:24.328Z,13.07
2023-12-27T05:34:54.065Z,13.03
2023-12-27T05:37:21.880Z,9.97
2023-12-27T05:39:48.920Z,8.07
2023-12-27T05:42:15.888Z,12.83
2023-12-27T05:44:43.127Z,12.47
2023-12-27T05:47:10.057Z,13.10
2023-12-27T05:49:37.211Z,13.27
2023-12-27T05:52:05.120Z,11.10
2023-12-27T05:54:32.090Z,10.67
2023-12-27T05:56:59.154Z,11.43
2023-12-27T05:59:26.907Z,11.07
2023-12-27T06:01:56.558Z,11.70
2023-12-27T06:04:23.744Z,15.77
2023-12-27T06:06:52.391Z,11.60
2023-12-27T06:09:22.115Z,14.30
2023-12-27T06:11:49.103Z,10.37
2023-12-27T06:14:16.157Z,15.93
2023-12-27T06:16:44.432Z,16.13
2023-12-27T06:19:11.781Z,11.73
2023-12-27T06:21:38.891Z,11.43
2023-12-27T06:24:06.197Z,15.50
2023-12-27T06:26:33.211Z,10.17
2023-12-27T06:29:00.102Z,14.83
2023-12-27T06:31:28.612Z,13.07
2023-12-27T06:33:56.061Z,10.17
2023-12-27T06:36:23.717Z,11.60
2023-12-27T06:38:51.100Z,11.97
2023-12-27T06:41:18.103Z,8.20
2023-12-27T06:43:45.523Z,10.77
2023-12-27T06:46:12.539Z,12.63
2023-12-27T06:48:40.475Z,9.47
2023-12-27T06:51:08.194Z,10.93
2023-12-27T06:53:35.345Z,15.73
2023-12-27T06:56:02.621Z,12.20
2023-12-27T06:58:29.766Z,11.50
2023-12-27T07:00:57.008Z,11.83
2023-12-27T07:03:25.576Z,11.73
2023-12-27T07:05:52.899Z,11.47
2023-12-27T07:08:20.038Z,10.50
2023-12-27T07:10:46.957Z,13.50
2023-12-27T07:13:14.880Z,18.07
2023-12-27T07:15:41.967Z,14.33
2023-12-27T07:18:09.144Z,9.93
2023-12-27T07:20:36.202Z,13.30
2023-12-27T07:23:04.305Z,8.77
2023-12-27T07:25:31.439Z,9.97
2023-12-27T07:27:58.671Z,10.63
2023-12-27T07:30:25.865Z,13.67
2023-12-27T07:32:53.319Z,9.43
2023-12-27T07:35:20.467Z,13.90
2023-12-27T07:37:47.811Z,14.37
2023-12-27T07:40:17.918Z,16.23
2023-12-27T07:42:45.003Z,10.90
2023-12-27T07:45:12.128Z,13.80
2023-12-27T07:47:39.166Z,12.33
2023-12-27T07:50:06.878Z,15.03
2023-12-27T07:52:34.145Z,15.47
2023-12-27T07:55:01.106Z,18.53
2023-12-27T07:57:28.085Z,12.87
2023-12-27T07:59:58.451Z,12.57
2023-12-27T08:02:26.202Z,10.80
2023-12-27T08:04:53.177Z,11.90
2023-12-27T08:07:20.166Z,16.27
2023-12-27T08:09:47.143Z,10.30
2023-12-27T08:12:14.219Z,9.53
2023-12-27T08:14:41.256Z,11.23
2023-12-27T08:17:09.542Z,11.50
2023-12-27T08:19:36.718Z,12.73
2023-12-27T08:22:04.791Z,10.50
2023-12-27T08:24:31.895Z,14.50
2023-12-27T08:26:58.967Z,13.33
2023-12-27T08:29:26.349Z,13.90
2023-12-27T08:31:53.261Z,12.60
2023-12-27T08:34:21.236Z,13.80
2023-12-27T08:36:50.301Z,14.33
2023-12-27T08:39:17.462Z,15.40
2023-12-27T08:41:44.527Z,15.60
2023-12-27T08:44:11.543Z,9.10
2023-12-27T08:46:38.532Z,13.13
2023-12-27T08:49:05.559Z,12.53
2023-12-27T08:51:32.821Z,9.43
2023-12-27T08:54:00.404Z,10.10
2023-12-27T08:56:27.443Z,11.57
2023-12-27T08:58:54.444Z,7.70
2023-12-27T09:01:21.565Z,14.60
2023-12-27T09:03:50.113Z,14.67
2023-12-27T09:06:17.280Z,11.40
2023-12-27T09:08:44.341Z,11.47
2023-12-27T09:11:11.497Z,8.43
2023-12-27T09:13:38.421Z,11.13
2023-12-27T09:16:05.596Z,12.37
2023-12-27T09:18:32.695Z,12.93
2023-12-27T09:20:59.794Z,12.73
2023-12-27T09:23:26.722Z,12.77
2023-12-27T09:25:54.292Z,9.77
2023-12-27T09:28:23.250Z,10.77
2023-12-27T09:30:50.228Z,5.77
2023-12-27T09:33:18.629Z,10.20
2023-12-27T09:35:45.864Z,11.83
2023-12-27T09:38:12.853Z,10.37
2023-12-27T09:40:39.905Z,12.50
2023-12-27T09:43:09.352Z,9.07
2023-12-27T09:45:39.547Z,11.77
2023-12-27T09:48:11.918Z,12.03
2023-12-27T09:50:41.868Z,11.10
2023-12-27T09:53:10.930Z,11.63
2023-12-27T09:55:39.492Z,11.17
2023-12-27T09:58:07.896Z,12.43
2023-12-27T10:00:36.690Z,9.87
2023-12-27T10:03:08.808Z,15.77
2023-12-27T10:05:48.303Z,9.47
2023-12-27T10:08:16.085Z,11.50
2023-12-27T10:10:44.774Z,12.10
2023-12-27T10:13:13.441Z,15.37
2023-12-27T10:15:40.493Z,10.03
2023-12-27T10:18:08.814Z,12.80
2023-12-27T10:20:39.868Z,10.37
2023-12-27T10:23:07.988Z,14.70
2023-12-27T10:25:35.268Z,9.60
2023-12-27T10:28:03.041Z,13.20
2023-12-27T10:30:30.211Z,7.37
2023-12-27T10:33:04.653Z,11.97
2023-12-27T10:35:37.862Z,11.87
2023-12-27T10:38:08.317Z,15.67
2023-12-27T10:40:37.299Z,12.50
2023-12-27T10:43:04.538Z,10.10
2023-12-27T10:45:31.599Z,11.57
2023-12-27T10:48:05.641Z,10.03
2023-12-27T10:50:35.492Z,11.47
2023-12-27T10:53:08.255Z,10.00
2023-12-27T10:55:37.414Z,9.73
2023-12-27T10:58:07.837Z,11.70
2023-12-27T11:00:35.781Z,10.17
2023-12-27T11:03:03.824Z,14.43
2023-12-27T11:05:33.650Z,7.43
2023-12-27T11:08:02.369Z,15.10
2023-12-27T11:10:31.977Z,16.13
2023-12-27T11:13:00.480Z,13.67
2023-12-27T11:15:31.061Z,10.17
2023-12-27T11:18:02.772Z,15.27
2023-12-27T11:20:32.243Z,16.67
2023-12-27T11:22:59.480Z,18.10
2023-12-27T11:25:26.692Z,14.07
2023-12-27T11:27:54.240Z,15.03
2023-12-27T11:30:25.509Z,12.77
2023-12-27T11:32:53.977Z,19.23
2023-12-27T11:35:31.488Z,19.73
2023-12-27T11:38:22.262Z,14.53
2023-12-27T11:40:53.022Z,16.53
2023-12-27T11:43:28.321Z,15.80
2023-12-27T11:46:03.898Z,19.17
2023-12-27T11:48:37.345Z,14.83
2023-12-27T11:51:36.215Z,12.80
2023-12-27T11:54:05.083Z,12.90
2023-12-27T11:56:37.385Z,16.50
2023-12-27T11:59:10.485Z,16.40
2023-12-27T12:01:38.878Z,16.20
2023-12-27T12:04:11.706Z,17.77
2023-12-27T12:06:57.486Z,15.07
2023-12-27T12:09:47.848Z,15.20
2023-12-27T12:12:23.561Z,14.40
2023-12-27T12:14:57.367Z,13.73
2023-12-27T12:17:27.916Z,18.43
2023-12-27T12:19:56.723Z,15.57
2023-12-27T12:22:24.045Z,16.50
2023-12-27T12:24:51.113Z,20.17
2023-12-27T12:27:24.539Z,20.70
2023-12-27T12:29:54.315Z,18.37
2023-12-27T12:32:21.385Z,18.87
2023-12-27T12:34:48.424Z,19.03
2023-12-27T12:37:15.921Z,20.73
2023-12-27T12:39:42.998Z,21.30
2023-12-27T12:42:10.206Z,18.83
2023-12-27T12:44:38.176Z,19.93
2023-12-27T12:47:05.844Z,16.60
2023-12-27T12:49:34.195Z,22.80
2023-12-27T12:52:08.475Z,18.83
2023-12-27T12:54:37.031Z,20.10
2023-12-27T12:57:05.388Z,18.13
2023-12-27T12:59:32.861Z,20.53
2023-12-27T13:02:01.155Z,20.43
2023-12-27T13:04:28.363Z,18.53
2023-12-27T13:07:06.059Z,15.63
2023-12-27T13:09:33.540Z,16.20
2023-12-27T13:12:02.313Z,18.90
2023-12-27T13:14:39.579Z,17.00
2023-12-27T13:17:06.499Z,18.33
2023-12-27T13:19:33.537Z,16.80
2023-12-27T13:22:00.493Z,22.27
2023-12-27T13:24:27.881Z,19.17
2023-12-27T13:26:54.829Z,17.47
2023-12-27T13:29:22.959Z,18.80
2023-12-27T13:31:49.867Z,19.90
2023-12-27T13:34:17.326Z,17.30
2023-12-27T13:36:47.696Z,20.77
2023-12-27T13:39:15.555Z,19.33
2023-12-27T13:41:42.800Z,23.67
2023-12-27T13:44:09.756Z,16.47
2023-12-27T13:46:36.713Z,21.73
2023-12-27T13:49:04.108Z,20.30
2023-12-27T13:51:31.215Z,18.40
2023-12-27T13:54:03.241Z,19.30
2023-12-27T13:56:33.031Z,19.93
2023-12-27T13:58:59.968Z,21.07
2023-12-27T14:01:27.017Z,15.73
2023-12-27T14:03:54.911Z,21.37
2023-12-27T14:06:23.283Z,19.97
2023-12-27T14:08:52.615Z,18.17
2023-12-27T14:11:19.517Z,16.83
2023-12-27T14:13:46.742Z,21.27
2023-12-27T14:16:14.145Z,20.63
2023-12-27T14:18:41.279Z,22.70
2023-12-27T14:21:08.750Z,21.07
2023-12-27T14:23:35.697Z,23.77
2023-12-27T14:26:04.828Z,23.23
2023-12-27T14:28:32.630Z,24.57
2023-12-27T14:30:59.684Z,22.00
2023-12-27T14:33:27.058Z,21.83
2023-12-27T14:35:54.029Z,23.73
2023-12-27T14:38:21.007Z,23.33
2023-12-27T14:40:48.001Z,29.60
2023-12-27T14:43:15.087Z,24.17
2023-12-27T14:45:42.334Z,27.43
2023-12-27T14:48:09.640Z,24.93
2023-12-27T14:50:36.761Z,23.63
2023-12-27T14:53:04.408Z,23.90
2023-12-27T14:55:31.442Z,24.63
2023-12-27T14:57:58.560Z,24.57
2023-12-27T15:00:25.872Z,28.23
2023-12-27T15:02:52.935Z,22.30
2023-12-27T15:05:19.884Z,24.50
2023-12-27T15:07:46.853Z,29.37
2023-12-27T15:10:13.974Z,28.60
2023-12-27T15:12:40.940Z,27.63
2023-12-27T15:15:08.484Z,27.10
2023-12-27T15:17:35.574Z,29.30
2023-12-27T15:20:03.067Z,27.87
2023-12-27T15:22:30.157Z,30.77
2023-12-27T15:24:57.065Z,32.40
2023-12-27T15:27:25.971Z,30.43
2023-12-27T15:29:58.536Z,31.30
2023-12-27T15:32:25.646Z,30.90
2023-12-27T15:34:52.796Z,31.37
2023-12-27T15:37:19.864Z,33.27
2023-12-27T15:39:47.734Z,35.83
2023-12-27T15:42:16.278Z,33.53
2023-12-27T15:44:43.349Z,30.83
2023-12-27T15:47:10.511Z,32.87
2023-12-27T15:49:37.616Z,33.50
2023-12-27T15:52:04.970Z,31.00
2023-12-27T15:54:32.113Z,30.67
2023-12-27T15:56:59.622Z,29.77
2023-12-27T15:59:26.581Z,31.10
2023-12-27T16:01:56.903Z,34.43
2023-12-27T16:04:24.572Z,29.30
2023-12-27T16:06:51.857Z,28.80
2023-12-27T16:09:18.950Z,27.73
2023-12-27T16:11:45.988Z,27.40
2023-12-27T16:14:13.869Z,27.37
2023-12-27T16:16:42.342Z,26.65
2023-12-27T16:19:10.091Z,25.73
2023-12-27T16:21:37.413Z,24.20
2023-12-27T16:24:04.896Z,27.90
2023-12-27T16:26:32.305Z,26.67
2023-12-27T16:28:59.416Z,23.23
2023-12-27T16:31:29.855Z,26.70
2023-12-27T16:33:57.098Z,27.53
2023-12-27T16:36:25.314Z,27.27
2023-12-27T16:38:56.059Z,28.70
2023-12-27T16:41:23.253Z,22.92
2023-12-27T16:43:50.668Z,21.83
2023-12-27T16:46:18.144Z,23.40
2023-12-27T16:48:47.954Z,24.63
2023-12-27T16:51:16.259Z,21.07
2023-12-27T16:53:43.573Z,24.50
2023-12-27T16:56:17.990Z,25.75
2023-12-27T16:58:45.620Z,25.00
2023-12-27T17:01:13.220Z,27.35
2023-12-27T17:03:41.729Z,25.58
2023-12-27T17:06:10.123Z,22.13
2023-12-27T17:08:37.190Z,21.83
2023-12-27T17:11:04.322Z,20.80
2023-12-27T17:13:31.362Z,18.73
2023-12-27T17:15:58.420Z,18.15
2023-12-27T17:18:25.517Z,22.52
2023-12-27T17:20:52.853Z,20.55
2023-12-27T17:23:19.773Z,14.90
2023-12-27T17:25:46.755Z,18.70
2023-12-27T17:28:13.726Z,16.33
2023-12-27T17:30:41.075Z,16.70
2023-12-27T17:33:08.626Z,16.75
2023-12-27T17:35:35.821Z,16.27
2023-12-27T17:38:02.862Z,18.47
2023-12-27T17:40:29.793Z,15.60
2023-12-27T17:42:58.175Z,14.20
2023-12-27T17:45:25.593Z,14.27
2023-12-27T17:47:52.891Z,14.53
2023-12-27T17:50:20.070Z,14.13
2023-12-27T17:52:47.077Z,14.43
2023-12-27T17:55:14.182Z,13.83
2023-12-27T17:57:41.260Z,14.83
2023-12-27T18:00:11.096Z,12.07
2023-12-27T18:02:38.289Z,12.77
2023-12-27T18:05:05.810Z,12.87
2023-12-27T18:07:34.173Z,13.87
2023-12-27T18:10:01.238Z,12.07
2023-12-27T18:12:28.190Z,12.43
2023-12-27T18:14:56.094Z,12.23
2023-12-27T18:17:23.063Z,11.32
2023-12-27T18:19:50.342Z,11.18
2023-12-27T18:22:17.500Z,10.43
2023-12-27T18:24:44.538Z,13.02
2023-12-27T18:27:11.582Z,14.15
2023-12-27T18:29:39.408Z,14.25
2023-12-27T18:32:10.578Z,12.57
2023-12-27T18:34:41.643Z,11.85
2023-12-27T18:37:09.253Z,9.32
2023-12-27T18:39:38.298Z,11.40
2023-12-27T18:42:06.028Z,10.27
2023-12-27T18:44:35.366Z,11.73
2023-12-27T18:47:02.941Z,8.85
2023-12-27T18:49:30.394Z,11.05
2023-12-27T18:51:57.542Z,8.50
2023-12-27T18:54:24.583Z,8.82
2023-12-27T18:56:51.759Z,11.68
2023-12-27T18:59:18.729Z,7.80
2023-12-27T19:01:45.733Z,8.50
2023-12-27T19:04:12.859Z,10.77
2023-12-27T19:06:40.160Z,10.40
2023-12-27T19:09:08.269Z,10.17
2023-12-27T19:11:35.328Z,11.73
2023-12-27T19:14:02.308Z,8.13
2023-12-27T19:16:29.650Z,8.10
2023-12-27T19:18:58.146Z,10.82
2023-12-27T19:21:26.428Z,9.57
2023-12-27T19:23:57.088Z,8.00
2023-12-27T19:26:27.873Z,7.43
2023-12-27T19:28:54.946Z,7.38
2023-12-27T19:31:22.203Z,7.70
2023-12-27T19:33:49.592Z,8.55
2023-12-27T19:36:16.709Z,9.40
2023-12-27T19:38:44.965Z,7.78
2023-12-27T19:41:12.616Z,6.35
2023-12-27T19:43:39.851Z,6.70
2023-12-27T19:46:08.201Z,9.50
2023-12-27T19:48:36.941Z,7.88
2023-12-27T19:51:04.013Z,9.17
2023-12-27T19:53:31.048Z,6.63
2023-12-27T19:55:58.047Z,5.25
2023-12-27T19:58:25.248Z,5.68
2023-12-27T20:00:53.239Z,6.90
2023-12-27T20:03:20.544Z,11.50
2023-12-27T20:05:47.677Z,6.68
2023-12-27T20:08:14.931Z,6.18
2023-12-27T20:10:42.059Z,4.82
2023-12-27T20:13:09.080Z,7.13
2023-12-27T20:18:09.848Z,5.95
2023-12-27T20:20:39.195Z,9.48
2023-12-27T20:23:06.991Z,5.72
2023-12-27T20:25:34.477Z,10.05
2023-12-27T20:28:01.796Z,6.85
2023-12-27T20:30:29.762Z,6.93
2023-12-27T20:32:57.433Z,6.45
2023-12-27T20:35:24.495Z,5.97
2023-12-27T20:37:51.628Z,9.30
2023-12-27T20:40:20.223Z,4.22
2023-12-27T20:42:51.891Z,8.10
2023-12-27T20:45:20.554Z,5.63
2023-12-27T20:47:48.660Z,5.05
2023-12-27T20:50:18.314Z,5.07
2023-12-27T20:52:45.306Z,6.28
2023-12-27T20:55:12.245Z,5.78
2023-12-27T20:57:39.244Z,6.80
2023-12-27T21:00:07.333Z,6.95
2023-12-27T21:02:36.032Z,5.90
2023-12-27T21:05:03.631Z,5.70
2023-12-27T21:07:32.157Z,4.68
2023-12-27T21:10:00.264Z,4.53
2023-12-27T21:12:27.664Z,6.30
2023-12-27T21:14:54.753Z,8.60
2023-12-27T21:17:21.917Z,6.53
2023-12-27T21:19:49.178Z,4.80
2023-12-27T21:22:16.251Z,5.85
2023-12-27T21:24:45.450Z,6.10
2023-12-27T21:27:12.698Z,5.97
2023-12-27T21:29:40.030Z,4.93
2023-12-27T21:32:07.303Z,6.17
2023-12-27T21:34:34.433Z,6.33
2023-12-27T21:37:01.543Z,5.50
2023-12-27T21:39:28.870Z,6.27
2023-12-27T21:41:58.271Z,5.18
2023-12-27T21:44:25.496Z,4.38
2023-12-27T21:46:52.852Z,5.72
2023-12-27T21:49:19.939Z,6.57
2023-12-27T21:51:47.255Z,7.22
2023-12-27T21:54:14.512Z,5.97
2023-12-27T21:56:43.917Z,6.13
2023-12-27T21:59:10.965Z,5.22
2023-12-27T22:01:38.156Z,6.38
2023-12-27T22:04:07.010Z,5.55
2023-12-27T22:06:34.418Z,5.72
2023-12-27T22:09:01.585Z,5.05
2023-12-27T22:11:28.698Z,5.55
2023-12-27T22:13:55.973Z,5.25
2023-12-27T22:16:24.216Z,5.00
2023-12-27T22:18:51.632Z,5.10
2023-12-27T22:21:19.780Z,5.32
2023-12-27T22:23:48.245Z,4.95
2023-12-27T22:26:15.550Z,6.15
2023-12-27T22:28:43.432Z,5.93
2023-12-27T22:31:18.036Z,5.63
2023-12-27T22:33:45.308Z,6.68
2023-12-27T22:36:12.679Z,7.32
2023-12-27T22:38:39.668Z,5.05
2023-12-27T22:41:06.673Z,7.72
2023-12-27T22:43:33.846Z,7.53
2023-12-27T22:46:00.899Z,5.22
2023-12-27T22:48:28.728Z,6.00
2023-12-27T22:50:55.785Z,5.05
2023-12-27T22:53:22.742Z,5.38
2023-12-27T22:55:49.749Z,7.18
2023-12-27T22:58:16.654Z,5.22
2023-12-27T23:00:43.715Z,5.13
2023-12-27T23:03:10.912Z,5.35
2023-12-27T23:05:38.208Z,5.47
2023-12-27T23:08:05.358Z,6.82
2023-12-27T23:10:32.308Z,5.50
2023-12-27T23:12:59.270Z,6.28
2023-12-27T23:15:27.490Z,6.00
2023-12-27T23:17:54.848Z,6.10
2023-12-27T23:20:21.885Z,7.57
2023-12-27T23:22:48.813Z,6.57
2023-12-27T23:25:15.830Z,6.55
2023-12-27T23:27:42.919Z,5.75
2023-12-27T23:30:10.479Z,6.15
2023-12-27T23:32:45.336Z,7.80
2023-12-27T23:35:17.781Z,6.43
2023-12-27T23:37:44.792Z,7.03
2023-12-27T23:40:12.304Z,6.80
2023-12-27T23:42:39.675Z,6.55
2023-12-27T23:45:07.371Z,6.63
2023-12-27T23:47:34.570Z,6.85
2023-12-27T23:50:01.971Z,6.35
2023-12-27T23:52:29.064Z,7.80
2023-12-27T23:54:56.060Z,6.68
2023-12-27T23:57:23.103Z,8.02
2023-12-27T23:59:50.083Z,6.22
